Bookmark and Share
Track history (hours):
 

Tom Frazier

More information available from US FCC via Universal Licensing System and Coast Guard Vessel Documentation Center.

Last reported at 2014-Mar-07 19:16 UTC. Time now 2014-Apr-20 05:55 UTC.
Position N 38°46' W 084°04'.
Warning: this ship's position is 43 days out of date.

Length 48 m; draft 2.9 m.

MMSI: 367143910.

NotesDate/timePositionNaut miles runAvg speedWind from/ knotsBaromVisibWave heightAir tempDewpointWater temp
2014-Mar-07 19:16N 38°46' W 084°04'3 3.9
2014-Mar-07 18:30N 38°47' W 084°08'2 0.7
2014-Mar-07 15:13N 38°48' W 084°11'0 0.3
2014-Mar-07 14:32N 38°48' W 084°11'0 0.2
2014-Mar-07 13:32N 38°48' W 084°11'0 0.0
2014-Mar-07 11:33N 38°48' W 084°11'1 1.2
2014-Mar-07 10:33N 38°48' W 084°12'3 3.4
2014-Mar-07 09:33N 38°51' W 084°14'4 4.3
2014-Mar-07 08:33N 38°55' W 084°16'4 4.3
2014-Mar-07 07:33N 38°59' W 084°18'4 4.2
2014-Mar-07 06:33N 39°02' W 084°22'4 4.0
2014-Mar-07 05:33N 39°04' W 084°26'3 3.4
2014-Mar-07 04:33N 39°07' W 084°29'3 3.4
2014-Mar-07 03:33N 39°06' W 084°33'4 3.7
2014-Mar-07 02:33N 39°04' W 084°37'4 3.5
2014-Mar-07 01:33N 39°06' W 084°41'0 0.1
2014-Mar-07 00:32N 39°06' W 084°41'0 0.0
2014-Mar-06 23:32N 39°06' W 084°41'0 0.0
2014-Mar-06 22:32N 39°06' W 084°41'0 0.0
2014-Mar-06 21:33N 39°06' W 084°41'1 1.3
2014-Mar-06 20:31N 39°07' W 084°42'  

Dump ship's entire track history

sailing weather and tide predictions

Tom Frazier — WDD4376 — position and weather